Time;durP1;ratioP1;P1;durP2;ratioP2;P2;SDS_P1;SDS_P2;PMS_P1;PMS_P2;Temp;Humidity;BMP_temperature;BMP_pressure;BME280_temperature;BME280_humidity;BME280_pressure;Samples;Min_cycle;Max_cycle;Signal;HPM_P1;HPM_P2
2020/12/13 00:00:49;;;;;;;38.83;22.03;;;8.70;99.90;;;;;;5014031;28;20256;-71
2020/12/13 00:03:15;;;;;;;35.63;21.40;;;8.70;99.90;;;;;;5014375;28;20184;-72
2020/12/13 00:05:41;;;;;;;39.93;23.03;;;8.70;99.90;;;;;;5014110;28;20429;-72
2020/12/13 00:08:07;;;;;;;35.27;23.77;;;8.70;99.90;;;;;;5012776;28;20195;-72
2020/12/13 00:10:32;;;;;;;39.33;21.07;;;8.70;99.90;;;;;;5014464;28;20450;-72
2020/12/13 00:12:58;;;;;;;36.10;20.90;;;8.80;99.90;;;;;;5013017;28;20201;-71
2020/12/13 00:15:24;;;;;;;34.07;21.90;;;8.70;99.90;;;;;;5014706;28;20694;-72
2020/12/13 00:17:51;;;;;;;33.63;21.10;;;8.70;99.90;;;;;;5017533;28;20245;-72
2020/12/13 00:20:17;;;;;;;26.63;18.40;;;8.70;99.90;;;;;;5016504;28;20504;-72
2020/12/13 00:22:43;;;;;;;30.20;17.10;;;8.70;99.90;;;;;;5012530;28;20422;-72
2020/12/13 00:25:08;;;;;;;27.83;18.00;;;8.70;99.90;;;;;;5012601;28;20186;-72
2020/12/13 00:27:34;;;;;;;26.10;15.97;;;8.70;99.90;;;;;;5013311;28;20179;-72
2020/12/13 00:29:59;;;;;;;25.30;15.93;;;8.70;99.90;;;;;;5013661;28;20199;-72
2020/12/13 00:32:29;;;;;;;27.17;15.97;;;8.70;99.90;;;;;;5013943;28;20234;-72
2020/12/13 00:34:56;;;;;;;25.00;15.83;;;8.70;99.90;;;;;;5013735;28;20232;-72
2020/12/13 00:37:21;;;;;;;20.20;14.03;;;8.70;99.90;;;;;;5013443;28;20496;-72
2020/12/13 00:39:47;;;;;;;21.60;13.13;;;8.70;99.90;;;;;;5013271;28;20523;-72
2020/12/13 00:42:12;;;;;;;19.17;14.10;;;8.70;99.90;;;;;;5013325;28;20607;-72
2020/12/13 00:44:38;;;;;;;20.43;13.33;;;8.70;99.90;;;;;;5013133;28;20171;-71
2020/12/13 00:47:03;;;;;;;19.30;13.10;;;8.70;99.90;;;;;;5013180;28;20200;-71
2020/12/13 00:49:29;;;;;;;20.27;13.30;;;8.70;99.90;;;;;;5013180;28;20207;-71
2020/12/13 00:52:00;;;;;;;18.80;12.70;;;8.70;99.90;;;;;;5013372;28;20197;-71
2020/12/13 00:54:26;;;;;;;18.07;11.30;;;8.70;99.90;;;;;;5013118;28;20212;-71
2020/12/13 00:56:51;;;;;;;22.00;13.97;;;8.70;99.90;;;;;;5013315;28;20460;-71
2020/12/13 00:59:17;;;;;;;19.33;12.10;;;8.70;99.90;;;;;;5013143;28;20199;-71
2020/12/13 01:01:42;;;;;;;18.80;12.60;;;8.70;99.90;;;;;;5013126;28;20203;-73
2020/12/13 01:04:08;;;;;;;16.93;11.87;;;8.70;99.90;;;;;;5013351;28;20222;-72
2020/12/13 01:06:33;;;;;;;23.13;15.00;;;8.70;99.90;;;;;;5013127;28;20176;-71
2020/12/13 01:08:59;;;;;;;22.20;14.00;;;8.70;99.90;;;;;;5011561;28;20195;-71
2020/12/13 01:11:30;;;;;;;19.87;13.77;;;8.70;99.90;;;;;;5012885;28;20179;-71
2020/12/13 01:13:56;;;;;;;21.23;15.60;;;8.70;99.90;;;;;;5013409;28;20180;-71
2020/12/13 01:16:23;;;;;;;20.13;14.73;;;8.70;99.90;;;;;;5012899;28;20823;-72
2020/12/13 01:18:49;;;;;;;23.70;13.93;;;8.70;99.90;;;;;;5012678;28;20431;-72
2020/12/13 01:21:17;;;;;;;19.50;13.13;;;8.70;99.90;;;;;;5012861;28;20454;-72
2020/12/13 01:23:43;;;;;;;21.20;12.50;;;8.70;99.90;;;;;;5012922;28;20453;-72
2020/12/13 01:26:13;;;;;;;25.03;15.00;;;8.70;99.90;;;;;;5012940;28;20902;-72
2020/12/13 01:28:40;;;;;;;24.03;14.67;;;8.70;99.90;;;;;;5013398;28;20194;-72
2020/12/13 01:31:06;;;;;;;24.83;14.30;;;8.70;99.90;;;;;;5012930;28;20462;-72
2020/12/13 01:33:32;;;;;;;23.23;14.50;;;8.70;99.90;;;;;;5013158;28;20941;-72
2020/12/13 01:35:58;;;;;;;24.23;15.47;;;8.70;99.90;;;;;;5013727;28;20485;-72
2020/12/13 01:38:23;;;;;;;24.17;15.20;;;8.70;99.90;;;;;;5015932;28;20537;-72
2020/12/13 01:40:57;;;;;;;25.40;16.13;;;8.80;99.90;;;;;;5013376;28;20458;-72
2020/12/13 01:43:23;;;;;;;27.30;16.50;;;8.70;99.90;;;;;;5005775;28;20185;-71
2020/12/13 01:45:48;;;;;;;32.07;16.03;;;8.80;99.90;;;;;;5012594;28;20440;-71
2020/12/13 01:48:14;;;;;;;28.33;16.93;;;8.80;99.90;;;;;;5012203;28;20279;-72
2020/12/13 01:50:49;;;;;;;32.27;17.63;;;8.70;99.90;;;;;;5012528;28;20305;-71
2020/12/13 01:53:18;;;;;;;33.57;18.60;;;8.70;99.90;;;;;;5011236;28;20175;-72
2020/12/13 01:55:47;;;;;;;34.37;19.27;;;8.80;99.90;;;;;;5012797;28;20512;-72
2020/12/13 01:58:17;;;;;;;35.90;20.97;;;8.80;99.90;;;;;;5014848;28;20488;-72
2020/12/13 02:00:46;;;;;;;37.97;21.47;;;8.80;99.90;;;;;;5015131;28;20461;-72
2020/12/13 02:03:19;;;;;;;37.00;21.47;;;8.80;99.90;;;;;;5016343;28;20522;-72
2020/12/13 02:05:50;;;;;;;34.50;19.73;;;8.80;99.90;;;;;;5016751;28;20798;-72
2020/12/13 02:08:22;;;;;;;40.33;20.57;;;8.80;99.90;;;;;;5016093;28;20414;-72
2020/12/13 02:10:48;;;;;;;35.13;20.13;;;8.80;99.90;;;;;;5016378;28;20455;-72
2020/12/13 02:13:14;;;;;;;38.27;21.97;;;8.80;99.90;;;;;;5016075;28;20810;-72
2020/12/13 02:15:40;;;;;;;36.57;20.70;;;8.80;99.90;;;;;;5014948;28;20509;-73
2020/12/13 02:18:05;;;;;;;39.33;23.53;;;8.80;99.90;;;;;;5015786;28;20190;-73
2020/12/13 02:20:31;;;;;;;47.80;24.50;;;8.80;99.90;;;;;;5014345;28;20539;-71
2020/12/13 02:22:57;;;;;;;37.70;21.87;;;8.70;99.90;;;;;;5015846;28;20188;-72
2020/12/13 02:25:23;;;;;;;43.70;23.70;;;8.70;99.90;;;;;;5016565;28;20175;-72
2020/12/13 02:27:49;;;;;;;44.07;23.60;;;8.70;99.90;;;;;;5015966;28;20468;-72
2020/12/13 02:30:14;;;;;;;45.30;23.27;;;8.70;99.90;;;;;;5015866;28;20445;-72
2020/12/13 02:32:40;;;;;;;42.10;22.77;;;8.70;99.90;;;;;;5015533;28;20574;-72
2020/12/13 02:35:07;;;;;;;46.63;23.10;;;8.70;99.90;;;;;;5016150;28;20199;-72
2020/12/13 02:37:33;;;;;;;43.03;23.83;;;8.70;99.90;;;;;;5015596;28;20184;-72
2020/12/13 02:39:59;;;;;;;45.43;23.90;;;8.70;99.90;;;;;;5014000;28;20441;-72
2020/12/13 02:42:24;;;;;;;44.43;24.60;;;8.80;99.90;;;;;;5015695;28;20420;-72
2020/12/13 02:44:50;;;;;;;38.93;22.93;;;8.80;99.90;;;;;;5015899;28;20168;-71
2020/12/13 02:47:15;;;;;;;43.53;22.90;;;8.80;99.90;;;;;;5015163;28;20741;-72
2020/12/13 02:49:42;;;;;;;46.30;25.60;;;8.80;99.90;;;;;;5015675;28;20198;-72
2020/12/13 02:52:10;;;;;;;42.63;22.60;;;8.80;99.90;;;;;;5015301;28;20785;-72
2020/12/13 02:54:37;;;;;;;50.00;26.20;;;8.80;99.90;;;;;;5015502;28;20422;-72
2020/12/13 02:57:03;;;;;;;49.50;26.23;;;8.80;99.90;;;;;;5015140;28;20438;-72
2020/12/13 02:59:29;;;;;;;44.47;24.73;;;8.80;99.90;;;;;;5007254;28;20444;-72
2020/12/13 03:01:54;;;;;;;46.20;24.30;;;8.80;99.90;;;;;;5015320;28;20468;-72
2020/12/13 03:04:20;;;;;;;40.60;23.10;;;8.80;99.90;;;;;;5015359;28;20198;-72
2020/12/13 03:06:45;;;;;;;44.97;24.27;;;8.80;99.90;;;;;;5015293;28;20176;-71
2020/12/13 03:09:11;;;;;;;42.90;23.63;;;8.80;99.90;;;;;;5013558;28;20208;-71
2020/12/13 03:11:37;;;;;;;47.47;26.37;;;8.80;99.90;;;;;;5014600;28;20658;-71
2020/12/13 03:14:02;;;;;;;46.20;24.40;;;8.80;99.90;;;;;;5014921;28;20178;-71
2020/12/13 03:16:28;;;;;;;48.73;25.20;;;8.80;99.90;;;;;;5014710;28;20438;-71
2020/12/13 03:18:53;;;;;;;49.70;26.47;;;8.80;99.90;;;;;;5014994;28;20297;-72
2020/12/13 03:21:19;;;;;;;49.10;24.80;;;8.80;99.90;;;;;;5015140;28;20557;-72
2020/12/13 03:23:44;;;;;;;47.10;25.87;;;8.80;99.90;;;;;;5014662;28;20202;-72
2020/12/13 03:26:10;;;;;;;43.80;24.07;;;8.80;99.90;;;;;;5014966;28;20523;-71
2020/12/13 03:28:35;;;;;;;46.63;26.13;;;8.80;99.90;;;;;;5014201;28;20257;-72
2020/12/13 03:31:01;;;;;;;49.13;27.60;;;8.70;99.90;;;;;;5014008;28;20573;-71
2020/12/13 03:33:27;;;;;;;42.90;24.67;;;8.70;99.90;;;;;;5014630;28;20176;-71
2020/12/13 03:35:52;;;;;;;43.73;22.77;;;8.80;99.90;;;;;;5014302;28;20258;-72
2020/12/13 03:38:18;;;;;;;46.60;26.03;;;8.70;99.90;;;;;;5013164;28;20178;-71
2020/12/13 03:40:43;;;;;;;45.97;24.97;;;8.70;99.90;;;;;;5014561;28;20203;-72
2020/12/13 03:43:09;;;;;;;48.50;25.43;;;8.70;99.90;;;;;;5006506;28;20172;-72
2020/12/13 03:45:35;;;;;;;47.27;27.17;;;8.70;99.90;;;;;;5014911;28;20611;-72
2020/12/13 03:48:00;;;;;;;47.60;25.80;;;8.70;99.90;;;;;;5014122;28;20461;-72
2020/12/13 03:50:38;;;;;;;45.07;27.20;;;8.80;99.90;;;;;;5014470;28;20203;-72
2020/12/13 03:53:04;;;;;;;43.50;24.77;;;8.70;99.90;;;;;;5014329;28;20183;-72
2020/12/13 03:55:29;;;;;;;46.73;27.30;;;8.70;99.90;;;;;;5013025;28;20516;-72
2020/12/13 03:57:55;;;;;;;44.00;26.23;;;8.70;99.90;;;;;;5014044;28;20465;-72
2020/12/13 04:00:20;;;;;;;49.70;25.80;;;8.70;99.90;;;;;;5013981;28;20748;-72
2020/12/13 04:02:46;;;;;;;51.40;27.17;;;8.80;99.90;;;;;;5013950;28;20172;-71
2020/12/13 04:05:12;;;;;;;47.63;26.33;;;8.70;99.90;;;;;;5014032;28;20191;-71
2020/12/13 04:07:38;;;;;;;47.27;26.17;;;8.70;99.90;;;;;;5014063;28;20226;-71
2020/12/13 04:10:03;;;;;;;44.70;24.67;;;8.80;99.90;;;;;;5013738;28;20446;-71
2020/12/13 04:12:29;;;;;;;47.00;25.70;;;8.80;99.90;;;;;;5014313;28;20209;-72
2020/12/13 04:14:54;;;;;;;47.50;27.60;;;8.80;99.90;;;;;;5014196;28;20202;-72
2020/12/13 04:17:19;;;;;;;47.80;27.20;;;8.70;99.90;;;;;;5013552;28;20213;-72
2020/12/13 04:19:45;;;;;;;44.30;28.20;;;8.80;99.90;;;;;;5013351;28;20282;-72
2020/12/13 04:22:10;;;;;;;44.17;26.77;;;8.80;99.90;;;;;;5013511;28;20218;-72
2020/12/13 04:24:36;;;;;;;45.73;24.83;;;8.80;99.90;;;;;;5013882;28;20654;-72
2020/12/13 04:27:01;;;;;;;46.70;27.50;;;8.80;99.90;;;;;;5013237;28;20179;-72
2020/12/13 04:29:27;;;;;;;41.83;26.17;;;8.80;99.90;;;;;;5013514;28;20300;-72
2020/12/13 04:31:52;;;;;;;40.30;24.43;;;8.70;99.90;;;;;;5013197;28;20196;-72
2020/12/13 04:34:18;;;;;;;41.77;25.47;;;8.70;99.90;;;;;;5013521;28;20176;-72
2020/12/13 04:36:44;;;;;;;46.60;25.73;;;8.70;99.90;;;;;;5013371;28;20177;-72
2020/12/13 04:39:09;;;;;;;44.60;25.97;;;8.70;99.90;;;;;;5013237;28;20245;-72
2020/12/13 04:41:35;;;;;;;38.97;23.30;;;8.70;99.90;;;;;;5013517;28;20220;-73
2020/12/13 04:44:00;;;;;;;41.07;24.07;;;8.80;99.90;;;;;;5013621;28;20190;-73
2020/12/13 04:46:29;;;;;;;36.00;22.53;;;8.80;99.90;;;;;;5013161;28;20185;-73
2020/12/13 04:48:56;;;;;;;40.27;24.20;;;8.80;99.90;;;;;;5013089;28;20195;-73
2020/12/13 04:51:25;;;;;;;40.00;24.10;;;8.80;99.90;;;;;;5013252;28;20430;-71
2020/12/13 04:54:03;;;;;;;46.93;25.70;;;8.80;99.90;;;;;;5005217;28;20433;-73
2020/12/13 04:56:32;;;;;;;38.90;21.43;;;8.80;99.90;;;;;;5013114;28;20545;-71
2020/12/13 04:59:00;;;;;;;40.63;22.43;;;8.70;99.90;;;;;;5012961;28;20442;-74
2020/12/13 05:01:25;;;;;;;35.83;20.67;;;8.70;99.90;;;;;;5015055;28;20454;-72
2020/12/13 05:03:51;;;;;;;38.67;22.23;;;8.70;99.90;;;;;;5013318;28;20426;-73
2020/12/13 05:06:17;;;;;;;43.50;23.50;;;8.70;99.90;;;;;;5013604;28;20173;-72
2020/12/13 05:08:43;;;;;;;41.97;24.87;;;8.70;99.90;;;;;;5013260;28;20240;-71
2020/12/13 05:11:08;;;;;;;38.40;23.13;;;8.60;99.90;;;;;;5013499;28;20920;-72
2020/12/13 05:13:37;;;;;;;46.00;23.07;;;8.70;99.90;;;;;;5013339;28;20662;-72
2020/12/13 05:16:06;;;;;;;39.67;21.13;;;8.60;99.90;;;;;;5013345;28;20179;-72
2020/12/13 05:18:32;;;;;;;40.83;22.87;;;8.70;99.90;;;;;;5013003;28;20430;-72
2020/12/13 05:20:58;;;;;;;41.70;22.77;;;8.60;99.90;;;;;;5012989;28;20486;-73
2020/12/13 05:23:24;;;;;;;37.67;22.07;;;8.70;99.90;;;;;;5012742;28;20199;-72
2020/12/13 05:25:51;;;;;;;39.37;21.80;;;8.70;99.90;;;;;;5013016;28;20505;-72
2020/12/13 05:28:20;;;;;;;39.10;22.70;;;8.70;99.90;;;;;;5012943;28;20422;-72
2020/12/13 05:30:47;;;;;;;32.60;21.40;;;8.70;99.90;;;;;;5011826;28;20768;-72
2020/12/13 05:33:38;;;;;;;34.63;20.53;;;8.70;99.90;;;;;;5014742;28;20881;-73
2020/12/13 05:36:09;;;;;;;35.93;21.00;;;8.70;99.90;;;;;;5016310;28;20429;-72
2020/12/13 05:38:37;;;;;;;32.93;19.10;;;8.70;99.90;;;;;;5016733;28;20442;-72
2020/12/13 05:41:08;;;;;;;35.93;20.80;;;8.70;99.90;;;;;;5016973;28;20459;-72
2020/12/13 05:44:26;;;;;;;33.83;20.80;;;8.70;99.90;;;;;;5017128;28;20422;-72
2020/12/13 05:49:11;;;;;;;33.87;21.10;;;8.70;99.90;;;;;;5016350;28;20861;-72
2020/12/13 05:51:40;;;;;;;34.50;20.10;;;8.70;99.90;;;;;;5011088;28;20451;-72
2020/12/13 05:54:24;;;;;;;36.00;21.00;;;8.60;99.90;;;;;;5014939;28;20517;-72
2020/12/13 05:56:57;;;;;;;36.30;21.30;;;8.60;99.90;;;;;;5016535;28;20429;-72
2020/12/13 05:59:27;;;;;;;36.80;21.00;;;8.60;99.90;;;;;;5008438;28;20501;-72
2020/12/13 06:01:55;;;;;;;33.50;20.00;;;8.60;99.90;;;;;;5016348;28;20476;-72
2020/12/13 06:04:28;;;;;;;36.33;19.17;;;8.60;99.90;;;;;;5015012;28;20547;-72
2020/12/13 06:07:00;;;;;;;34.10;20.43;;;8.60;99.90;;;;;;5014963;28;20788;-72
2020/12/13 06:09:32;;;;;;;33.83;20.03;;;8.50;99.90;;;;;;5016130;28;20442;-72
2020/12/13 06:12:02;;;;;;;39.70;21.50;;;8.50;99.90;;;;;;5015183;28;20968;-72
2020/12/13 06:14:28;;;;;;;36.73;21.57;;;8.50;99.90;;;;;;5016170;28;20917;-71
2020/12/13 06:16:56;;;;;;;43.27;22.57;;;8.50;99.90;;;;;;5016715;28;20429;-71
2020/12/13 06:19:24;;;;;;;35.00;21.33;;;8.50;99.90;;;;;;5016115;28;20909;-72
2020/12/13 06:21:50;;;;;;;37.00;21.93;;;8.50;99.90;;;;;;5016171;28;20480;-72
2020/12/13 06:24:17;;;;;;;33.23;19.57;;;8.50;99.90;;;;;;5015775;28;20431;-71
2020/12/13 06:26:43;;;;;;;32.63;18.33;;;8.50;99.90;;;;;;5016016;28;20419;-72
2020/12/13 06:29:09;;;;;;;34.00;18.67;;;8.40;99.90;;;;;;5015605;28;20450;-72
2020/12/13 06:31:37;;;;;;;33.57;19.77;;;8.40;99.90;;;;;;5014136;28;20422;-72
2020/12/13 06:34:04;;;;;;;34.87;19.83;;;8.40;99.90;;;;;;5016045;28;20191;-71
2020/12/13 06:36:35;;;;;;;31.57;19.63;;;8.40;99.90;;;;;;5015913;28;20431;-72
2020/12/13 06:39:12;;;;;;;28.33;18.00;;;8.40;99.90;;;;;;5014431;28;20446;-72
2020/12/13 06:41:40;;;;;;;31.30;18.90;;;8.40;99.90;;;;;;5015586;28;20472;-72
2020/12/13 06:44:06;;;;;;;24.90;15.90;;;8.50;99.90;;;;;;5015825;28;20505;-72
2020/12/13 06:46:35;;;;;;;26.97;17.40;;;8.50;99.90;;;;;;5015687;28;20494;-72
2020/12/13 06:49:00;;;;;;;25.40;16.17;;;8.50;99.90;;;;;;5015732;28;20450;-72
2020/12/13 06:51:37;;;;;;;24.10;16.20;;;8.40;99.90;;;;;;5014110;28;20984;-72
2020/12/13 06:54:06;;;;;;;24.40;14.33;;;8.40;99.90;;;;;;5015551;28;20681;-73
2020/12/13 06:56:33;;;;;;;21.63;13.90;;;8.50;99.90;;;;;;5015313;28;20906;-73
2020/12/13 06:59:04;;;;;;;17.20;12.03;;;8.50;99.90;;;;;;5014836;28;20446;-73
2020/12/13 07:01:39;;;;;;;16.60;11.40;;;8.50;99.90;;;;;;5015059;28;20469;-74
2020/12/13 07:04:36;;;;;;;19.77;12.93;;;8.50;99.90;;;;;;5015335;28;20418;-72
2020/12/13 07:07:18;;;;;;;17.87;12.33;;;8.50;99.90;;;;;;4993216;28;20480;-71
2020/12/13 07:09:48;;;;;;;19.73;12.90;;;8.50;99.90;;;;;;4993265;28;20447;-72
2020/12/13 07:12:14;;;;;;;16.27;10.70;;;8.40;99.90;;;;;;4993293;28;20450;-72
2020/12/13 07:14:42;;;;;;;12.27;9.50;;;8.50;99.90;;;;;;4993358;28;20440;-72
2020/12/13 07:17:14;;;;;;;16.20;11.17;;;8.40;99.90;;;;;;4993342;28;20924;-72
2020/12/13 07:19:40;;;;;;;14.80;10.67;;;8.50;99.90;;;;;;4993086;28;20474;-72
2020/12/13 07:22:13;;;;;;;13.17;9.60;;;8.50;99.90;;;;;;4993415;28;20467;-72
2020/12/13 07:24:40;;;;;;;13.43;9.77;;;8.50;99.90;;;;;;4993478;28;20605;-72
2020/12/13 07:27:07;;;;;;;12.10;9.23;;;8.50;99.90;;;;;;4993535;28;20494;-72
2020/12/13 07:29:33;;;;;;;15.50;9.97;;;8.50;99.90;;;;;;4992656;28;21041;-72
2020/12/13 07:32:00;;;;;;;15.27;11.17;;;8.50;99.90;;;;;;4993252;28;20455;-73
2020/12/13 07:34:25;;;;;;;17.43;11.70;;;8.50;99.90;;;;;;4993138;28;20462;-73
2020/12/13 07:36:51;;;;;;;17.87;12.90;;;8.60;99.90;;;;;;4993304;28;20428;-72
2020/12/13 07:39:17;;;;;;;19.50;14.37;;;8.50;99.90;;;;;;4992501;28;20682;-73
2020/12/13 07:41:44;;;;;;;23.37;15.50;;;8.50;99.90;;;;;;4992606;28;20238;-73
2020/12/13 07:44:11;;;;;;;24.57;15.33;;;8.50;99.90;;;;;;5010675;28;20207;-73
2020/12/13 07:46:38;;;;;;;25.20;15.37;;;8.50;99.90;;;;;;5014048;28;20450;-72
2020/12/13 07:49:04;;;;;;;23.40;16.67;;;8.50;99.90;;;;;;5014041;28;20442;-73
2020/12/13 07:51:31;;;;;;;25.03;15.87;;;8.50;99.90;;;;;;5014447;28;20421;-73
2020/12/13 07:53:56;;;;;;;25.20;16.50;;;8.50;99.90;;;;;;5014120;28;20642;-73
2020/12/13 07:56:26;;;;;;;24.33;16.80;;;8.50;99.90;;;;;;5012430;28;20510;-73
2020/12/13 07:59:07;;;;;;;21.60;15.10;;;8.50;99.90;;;;;;5013659;28;20191;-73
2020/12/13 08:01:32;;;;;;;23.90;17.20;;;8.50;99.90;;;;;;5013952;28;20513;-73
2020/12/13 08:03:58;;;;;;;24.97;16.03;;;8.50;99.90;;;;;;5013720;28;20509;-73
2020/12/13 08:06:24;;;;;;;26.43;16.70;;;8.50;99.90;;;;;;5014231;28;20180;-73
2020/12/13 08:08:49;;;;;;;22.23;15.60;;;8.50;99.90;;;;;;5013719;28;20296;-72
2020/12/13 08:11:15;;;;;;;27.63;15.50;;;8.50;99.90;;;;;;5014099;28;20183;-72
2020/12/13 08:13:52;;;;;;;23.73;14.80;;;8.50;99.90;;;;;;5014441;28;20171;-72
2020/12/13 08:16:18;;;;;;;20.37;14.53;;;8.50;99.90;;;;;;5007043;28;20442;-72
2020/12/13 08:18:46;;;;;;;25.23;16.10;;;8.50;99.90;;;;;;5013966;28;20531;-73
2020/12/13 08:21:15;;;;;;;21.20;15.97;;;8.30;99.90;;;;;;5014105;28;20458;-72
2020/12/13 08:23:42;;;;;;;22.90;16.37;;;8.30;99.90;;;;;;5014118;28;20493;-72
2020/12/13 08:26:09;;;;;;;22.87;15.33;;;8.30;99.90;;;;;;5014408;28;20471;-72
2020/12/13 08:28:37;;;;;;;21.20;15.10;;;8.40;99.90;;;;;;5013820;28;20521;-72
2020/12/13 08:31:06;;;;;;;27.73;16.40;;;8.40;99.90;;;;;;5014567;28;20427;-73
2020/12/13 08:33:31;;;;;;;26.70;15.57;;;8.30;99.90;;;;;;5014480;28;20419;-72
2020/12/13 08:35:57;;;;;;;24.17;16.50;;;8.40;99.90;;;;;;5017331;28;20438;-72
2020/12/13 08:38:23;;;;;;;21.40;16.43;;;8.40;99.90;;;;;;5021160;28;20168;-72
2020/12/13 08:40:49;;;;;;;23.17;16.57;;;8.40;99.90;;;;;;5016103;28;20461;-72
2020/12/13 08:43:19;;;;;;;29.90;17.30;;;8.30;99.90;;;;;;5014111;28;20418;-72
2020/12/13 08:45:56;;;;;;;22.27;15.63;;;8.40;99.90;;;;;;5013989;28;20535;-72
2020/12/13 08:48:26;;;;;;;19.97;15.50;;;8.40;99.90;;;;;;5005757;28;20438;-72
2020/12/13 08:51:07;;;;;;;22.80;14.30;;;8.40;99.90;;;;;;5013425;28;20419;-73
2020/12/13 08:53:33;;;;;;;20.40;14.63;;;8.40;99.90;;;;;;5014135;28;20456;-73
2020/12/13 08:56:07;;;;;;;18.10;13.73;;;8.40;99.90;;;;;;5013894;28;20527;-72
2020/12/13 08:59:01;;;;;;;23.00;15.30;;;8.40;99.90;;;;;;5006650;28;20819;-72
2020/12/13 09:01:30;;;;;;;19.43;14.03;;;8.40;99.90;;;;;;5012936;28;20808;-72
2020/12/13 09:03:56;;;;;;;19.20;13.80;;;8.40;99.90;;;;;;5013865;28;20446;-72
2020/12/13 09:06:33;;;;;;;22.53;13.63;;;8.40;99.90;;;;;;5013761;28;20770;-73
2020/12/13 09:09:09;;;;;;;17.43;13.40;;;8.40;99.90;;;;;;5013321;28;20897;-73
2020/12/13 09:11:34;;;;;;;15.57;12.30;;;8.40;99.90;;;;;;5013270;28;20442;-71
2020/12/13 09:14:00;;;;;;;25.07;13.60;;;8.50;99.90;;;;;;5013208;28;20441;-72
2020/12/13 09:16:31;;;;;;;16.83;12.07;;;8.40;99.90;;;;;;5013298;28;20258;-73
2020/12/13 09:19:10;;;;;;;26.37;11.93;;;8.50;99.90;;;;;;5013250;28;20561;-72
2020/12/13 09:21:58;;;;;;;14.70;11.63;;;8.50;99.90;;;;;;5013471;28;20523;-72
2020/12/13 09:24:29;;;;;;;18.90;12.00;;;8.40;99.90;;;;;;5013158;28;20485;-72
2020/12/13 09:27:07;;;;;;;20.70;12.43;;;8.40;99.90;;;;;;5012944;28;20457;-72
2020/12/13 09:29:35;;;;;;;18.00;11.87;;;8.50;99.90;;;;;;5013618;28;20850;-73
2020/12/13 09:32:01;;;;;;;18.53;12.27;;;8.50;99.90;;;;;;5013395;28;20781;-73
2020/12/13 09:34:26;;;;;;;18.97;12.40;;;8.40;99.90;;;;;;5012996;28;20426;-73
2020/12/13 09:36:52;;;;;;;16.53;12.00;;;8.40;99.90;;;;;;5013231;28;20738;-72
2020/12/13 09:39:18;;;;;;;16.50;12.13;;;8.40;99.90;;;;;;5012498;28;20219;-73
2020/12/13 09:41:43;;;;;;;17.80;13.43;;;8.40;99.90;;;;;;5012996;28;20199;-73
2020/12/13 09:44:09;;;;;;;20.70;11.87;;;8.40;99.90;;;;;;5012963;28;20179;-72
2020/12/13 09:46:34;;;;;;;17.00;11.27;;;8.40;99.90;;;;;;5013029;28;20188;-72
2020/12/13 09:49:00;;;;;;;20.70;11.33;;;8.40;99.90;;;;;;5012763;28;20199;-72
2020/12/13 09:51:26;;;;;;;16.00;11.27;;;8.40;99.90;;;;;;5013130;28;20541;-72
2020/12/13 09:53:51;;;;;;;18.70;11.60;;;8.50;99.90;;;;;;5012919;28;20179;-71
2020/12/13 09:56:18;;;;;;;15.70;11.73;;;8.50;99.90;;;;;;5012799;28;20211;-71
2020/12/13 09:58:44;;;;;;;16.03;11.30;;;8.40;99.90;;;;;;5012130;28;20227;-72
2020/12/13 10:01:11;;;;;;;17.93;11.07;;;8.40;99.90;;;;;;5013891;28;20459;-73
2020/12/13 10:03:39;;;;;;;16.43;12.07;;;8.50;99.90;;;;;;5013253;28;20431;-73
2020/12/13 10:06:26;;;;;;;14.70;11.27;;;8.50;99.90;;;;;;5012834;28;20441;-73
2020/12/13 10:11:33;;;;;;;16.23;12.17;;;8.60;99.90;;;;;;5012804;28;20440;-72
2020/12/13 10:13:59;;;;;;;16.13;12.83;;;8.60;99.90;;;;;;5013371;28;20426;-73
2020/12/13 10:16:26;;;;;;;18.60;13.60;;;8.60;99.90;;;;;;5010987;28;20462;-73
2020/12/13 10:18:51;;;;;;;18.67;11.97;;;8.60;99.90;;;;;;5014664;28;20456;-74
2020/12/13 10:21:36;;;;;;;18.10;12.90;;;8.60;99.90;;;;;;5016144;28;20457;-73
2020/12/13 10:24:03;;;;;;;16.10;12.10;;;8.70;99.90;;;;;;5000827;28;20180;-73
2020/12/13 10:26:31;;;;;;;16.77;12.53;;;8.70;99.90;;;;;;5010014;28;20419;-73
2020/12/13 10:28:57;;;;;;;17.50;12.77;;;8.60;99.90;;;;;;5016489;28;20463;-73
2020/12/13 10:31:37;;;;;;;19.10;12.90;;;8.70;99.90;;;;;;5016491;28;20415;-73
2020/12/13 10:34:05;;;;;;;15.57;11.87;;;8.70;99.90;;;;;;5016598;28;20434;-73
2020/12/13 10:36:32;;;;;;;17.63;12.37;;;8.60;99.90;;;;;;5016283;28;20897;-73
2020/12/13 10:38:58;;;;;;;17.63;11.93;;;8.60;99.90;;;;;;5015883;28;20512;-73
2020/12/13 10:41:24;;;;;;;16.40;11.33;;;8.60;99.90;;;;;;5015789;28;20539;-74
2020/12/13 10:43:50;;;;;;;17.10;12.20;;;8.70;99.90;;;;;;5014879;28;20517;-73
2020/12/13 10:46:16;;;;;;;14.13;10.47;;;8.70;99.90;;;;;;5015876;28;20168;-73
2020/12/13 10:48:42;;;;;;;14.97;10.93;;;8.70;99.90;;;;;;5015552;28;20617;-73
2020/12/13 10:51:07;;;;;;;14.60;12.00;;;8.80;99.90;;;;;;5015918;28;20414;-73
2020/12/13 10:53:33;;;;;;;13.50;10.80;;;8.80;99.90;;;;;;5016069;28;20538;-73
2020/12/13 10:55:59;;;;;;;16.70;11.67;;;8.80;99.90;;;;;;5014104;28;20191;-73
2020/12/13 10:58:24;;;;;;;16.50;11.53;;;8.80;99.90;;;;;;5015459;28;20185;-72
2020/12/13 11:00:50;;;;;;;16.43;11.17;;;8.90;99.90;;;;;;5015799;28;20270;-73
2020/12/13 11:03:16;;;;;;;18.20;10.47;;;8.90;99.90;;;;;;5015764;28;20200;-73
2020/12/13 11:05:43;;;;;;;15.17;10.50;;;9.00;99.90;;;;;;5015325;28;20420;-72
2020/12/13 11:08:10;;;;;;;14.07;10.50;;;8.90;99.90;;;;;;5015137;28;20510;-73
2020/12/13 11:10:36;;;;;;;14.17;10.50;;;9.00;99.90;;;;;;5015117;28;20427;-73
2020/12/13 11:13:02;;;;;;;14.20;9.57;;;9.00;99.90;;;;;;5015207;28;21197;-74
2020/12/13 11:15:27;;;;;;;12.30;10.43;;;9.00;99.90;;;;;;5015439;28;20254;-72
2020/12/13 11:17:53;;;;;;;16.73;11.07;;;9.10;99.90;;;;;;5013500;28;20194;-72
2020/12/13 11:20:19;;;;;;;14.23;10.10;;;9.10;99.90;;;;;;5007981;28;20201;-73
2020/12/13 11:22:44;;;;;;;17.07;9.57;;;9.10;99.90;;;;;;5005358;28;20533;-74
2020/12/13 11:25:10;;;;;;;18.87;10.33;;;9.10;99.90;;;;;;5013026;28;20523;-74
2020/12/13 11:27:35;;;;;;;13.67;10.23;;;9.20;99.90;;;;;;5012445;28;20591;-72
2020/12/13 11:30:04;;;;;;;15.97;9.90;;;9.20;99.90;;;;;;5004871;28;20203;-72
2020/12/13 11:32:30;;;;;;;14.80;9.90;;;9.20;99.90;;;;;;5006822;28;20183;-72
2020/12/13 11:34:55;;;;;;;11.30;9.00;;;9.20;99.90;;;;;;5003556;28;20514;-73
2020/12/13 11:37:21;;;;;;;10.93;9.50;;;9.20;99.90;;;;;;5012043;28;20526;-73
2020/12/13 11:39:46;;;;;;;12.80;9.73;;;9.30;99.90;;;;;;5014912;28;20327;-73
2020/12/13 11:42:14;;;;;;;11.40;9.03;;;9.30;99.90;;;;;;5005335;28;20197;-73
2020/12/13 11:44:40;;;;;;;12.93;9.10;;;9.30;99.90;;;;;;5010908;28;20258;-74
2020/12/13 11:47:06;;;;;;;12.10;8.40;;;9.40;99.90;;;;;;5014337;28;20977;-73
2020/12/13 11:49:31;;;;;;;10.70;8.20;;;9.40;99.90;;;;;;5000570;28;20223;-74
2020/12/13 11:51:57;;;;;;;13.70;8.87;;;9.40;99.90;;;;;;5007247;28;20265;-73
2020/12/13 11:54:23;;;;;;;13.90;9.17;;;9.40;99.90;;;;;;5014737;28;20196;-73
2020/12/13 11:56:48;;;;;;;11.03;8.83;;;9.40;99.90;;;;;;5012163;28;20171;-73
2020/12/13 11:59:14;;;;;;;11.83;8.47;;;9.30;99.90;;;;;;5014929;28;20493;-72
2020/12/13 12:01:43;;;;;;;10.30;8.10;;;9.30;99.90;;;;;;5015081;28;20277;-73
2020/12/13 12:04:08;;;;;;;9.67;7.57;;;9.40;99.90;;;;;;5010626;28;20175;-72
2020/12/13 12:06:34;;;;;;;10.23;7.43;;;9.40;99.90;;;;;;5011475;28;20432;-74
2020/12/13 12:08:59;;;;;;;8.03;7.23;;;9.40;99.90;;;;;;5011874;28;20713;-73
2020/12/13 12:11:25;;;;;;;8.80;7.60;;;9.40;99.90;;;;;;5008501;28;20192;-72
2020/12/13 12:13:51;;;;;;;9.73;6.90;;;9.40;99.90;;;;;;5014020;28;20178;-74
2020/12/13 12:16:27;;;;;;;9.60;7.23;;;9.30;99.90;;;;;;5013117;28;20434;-73
2020/12/13 12:18:56;;;;;;;10.93;7.30;;;9.40;99.90;;;;;;5008566;28;20447;-73
2020/12/13 12:21:24;;;;;;;7.97;6.53;;;9.40;99.90;;;;;;5011855;28;20543;-73
2020/12/13 12:23:50;;;;;;;10.33;7.23;;;9.30;99.90;;;;;;5013964;28;20438;-72
2020/12/13 12:26:19;;;;;;;9.70;7.07;;;9.40;99.90;;;;;;5010850;28;20943;-73
2020/12/13 12:28:46;;;;;;;11.83;7.60;;;9.40;99.90;;;;;;5011743;28;20510;-73
2020/12/13 12:31:16;;;;;;;10.07;7.10;;;9.40;99.90;;;;;;5004832;28;20425;-73
2020/12/13 12:33:42;;;;;;;9.60;6.73;;;9.40;99.90;;;;;;5009941;28;20448;-73
2020/12/13 12:36:15;;;;;;;9.10;7.20;;;9.40;99.90;;;;;;5006625;28;20469;-74
2020/12/13 12:38:41;;;;;;;7.30;5.90;;;9.40;99.90;;;;;;5006010;28;20203;-74
2020/12/13 12:41:11;;;;;;;11.93;7.40;;;9.40;99.90;;;;;;5012615;28;20464;-74
2020/12/13 12:43:36;;;;;;;7.73;6.60;;;9.40;99.90;;;;;;5013048;28;20422;-74
2020/12/13 12:46:03;;;;;;;7.17;6.47;;;9.40;99.90;;;;;;5013150;28;20910;-72